Terminal Aerodrome Forecast
Issued by NWS

Home | Current Version | Previous Version | Text Only | Print | Product List | Glossary On
Versions: 1 2 3 4 5 6 7 8 9 10 11
115
FTUS44 KSJT 291120
TAFBBD
TAF
KBBD 291120Z 2912/3012 18007KT P6SM BKN021
     FM291500 22010KT P6SM VCTS SCT050CB SCT250
     FM292000 29014G20KT P6SM SCT250
     FM300200 32014G22KT P6SM SCT050 BKN100
     FM300800 33010KT P6SM SCT025
      AMD NOT SKED=

USA.gov is the U.S. government's official web portal to all federal, state and local government web resources and services.